Time;durP1;ratioP1;P1;durP2;ratioP2;P2;SDS_P1;SDS_P2;PMS_P1;PMS_P2;Temp;Humidity;BMP_temperature;BMP_pressure;BME280_temperature;BME280_humidity;BME280_pressure;Samples;Min_cycle;Max_cycle;Signal;HPM_P1;HPM_P2
2021/12/26 00:00:44;;;;;;;42.50;10.15;;;;;;;19.38;46.43;99448.53;4954603;29;20364;-82
2021/12/26 00:03:09;;;;;;;62.20;14.52;;;;;;;19.44;46.33;99448.13;4937377;29;20030;-81
2021/12/26 00:05:35;;;;;;;49.65;10.60;;;;;;;19.41;46.46;99452.47;4954471;29;20035;-81
2021/12/26 00:08:01;;;;;;;52.72;11.88;;;;;;;19.48;46.16;99457.97;4954569;29;20549;-81
2021/12/26 00:10:28;;;;;;;45.08;9.68;;;;;;;19.49;46.15;99456.00;4954493;29;20027;-81
2021/12/26 00:12:56;;;;;;;43.40;9.13;;;;;;;19.51;46.27;99465.50;4954392;29;20645;-81
2021/12/26 00:15:22;;;;;;;64.15;13.60;;;;;;;19.53;46.34;99468.66;4954492;29;20024;-81
2021/12/26 00:17:48;;;;;;;44.78;10.57;;;;;;;19.58;46.16;99468.25;4953996;29;20512;-82
2021/12/26 00:20:15;;;;;;;35.05;10.90;;;;;;;19.48;46.30;99466.28;4954267;29;20034;-81
2021/12/26 00:22:42;;;;;;;39.72;7.38;;;;;;;19.60;46.04;99459.53;4957835;28;20046;-81
2021/12/26 00:25:09;;;;;;;18.23;6.05;;;;;;;19.60;46.06;99459.53;4958314;29;20020;-81
2021/12/26 00:27:35;;;;;;;24.58;6.47;;;;;;;19.54;46.14;99459.13;4957930;29;20027;-81
2021/12/26 00:30:04;;;;;;;42.58;8.45;;;;;;;19.52;46.07;99458.75;4956542;29;20031;-82
2021/12/26 00:32:29;;;;;;;49.85;9.25;;;;;;;19.25;46.76;99461.25;4957518;29;20031;-81
2021/12/26 00:34:55;;;;;;;51.60;8.95;;;;;;;19.30;46.45;99455.31;4958180;29;20027;-81
2021/12/26 00:37:20;;;;;;;45.42;8.80;;;;;;;19.27;46.56;99450.59;4958063;29;20095;-82
2021/12/26 00:39:46;;;;;;;39.33;8.45;;;;;;;19.35;46.28;99446.59;4958122;29;20027;-81
2021/12/26 00:42:12;;;;;;;42.65;7.97;;;;;;;19.29;46.34;99456.50;4958131;29;20046;-81
2021/12/26 00:44:40;;;;;;;39.78;7.40;;;;;;;19.27;46.77;99442.28;4958046;29;20034;-81
2021/12/26 00:47:10;;;;;;;32.75;9.05;;;;;;;19.25;46.64;99444.63;4957974;29;20027;-81
2021/12/26 00:49:37;;;;;;;51.80;10.25;;;;;;;19.21;46.97;99454.97;4957851;29;20047;-82
2021/12/26 00:52:05;;;;;;;56.80;12.98;;;;;;;19.20;46.75;99453.38;4957827;29;20102;-82
2021/12/26 00:54:31;;;;;;;40.05;10.10;;;;;;;19.13;46.98;99453.41;4957831;29;20024;-81
2021/12/26 00:56:57;;;;;;;42.70;15.10;;;;;;;19.20;47.02;99449.81;4957622;29;20434;-81
2021/12/26 00:59:24;;;;;;;35.63;12.60;;;;;;;19.37;46.40;99458.03;4957908;29;20023;-81
2021/12/26 01:01:51;;;;;;;35.17;10.57;;;;;;;19.29;46.73;99445.41;4957686;29;20027;-81
2021/12/26 01:04:16;;;;;;;40.92;8.00;;;;;;;19.41;46.29;99452.47;4957628;29;20031;-81
2021/12/26 01:06:43;;;;;;;44.42;9.38;;;;;;;19.40;46.54;99440.59;4957660;29;20062;-81
2021/12/26 01:09:11;;;;;;;43.05;9.25;;;;;;;19.48;46.27;99440.56;4957524;29;20091;-81
2021/12/26 01:11:41;;;;;;;65.47;11.98;;;;;;;19.48;46.23;99432.25;4957292;29;20047;-81
2021/12/26 01:14:11;;;;;;;54.10;12.95;;;;;;;19.47;46.31;99441.75;4957600;29;20053;-81
2021/12/26 01:16:38;;;;;;;;;;;;;;;19.46;46.46;99437.41;4958140;29;20091;-81
2021/12/26 01:19:07;;;;;;;51.17;9.88;;;;;;;19.48;46.37;99437.78;4957336;29;19973;-81
2021/12/26 01:21:33;;;;;;;41.25;8.40;;;;;;;19.65;45.96;99439.72;4957291;29;20062;-81
2021/12/26 01:24:06;;;;;;;54.45;9.93;;;;;;;19.66;45.95;99436.53;4957473;29;20394;-81
2021/12/26 01:26:32;;;;;;;46.90;9.95;;;;;;;19.73;45.93;99438.47;4957328;29;20031;-81
2021/12/26 01:28:58;;;;;;;60.00;11.57;;;;;;;19.72;45.75;99436.88;4957194;29;20027;-81
2021/12/26 01:31:24;;;;;;;45.13;9.40;;;;;;;19.68;46.35;99439.69;4957296;29;20055;-81
2021/12/26 01:33:53;;;;;;;47.30;10.15;;;;;;;19.59;46.61;99441.34;4956505;28;20078;-82
2021/12/26 01:36:18;;;;;;;65.80;11.80;;;;;;;19.82;45.95;99444.34;4939865;29;20114;-82
2021/12/26 01:38:45;;;;;;;41.67;6.28;;;;;;;19.72;46.39;99436.88;4939736;29;20851;-81
2021/12/26 01:41:10;;;;;;;26.45;6.05;;;;;;;19.77;46.24;99441.22;4956901;29;20074;-81
2021/12/26 01:43:39;;;;;;;25.90;5.03;;;;;;;19.72;46.43;99445.19;4939730;29;20027;-81
2021/12/26 01:46:06;;;;;;;20.60;4.53;;;;;;;19.82;46.24;99441.56;4956867;29;20050;-81
2021/12/26 01:48:32;;;;;;;19.95;4.22;;;;;;;19.81;46.21;99442.00;4956894;29;20483;-81
2021/12/26 01:50:59;;;;;;;24.15;5.43;;;;;;;19.80;46.11;99434.84;4956800;29;20040;-82
2021/12/26 01:53:34;;;;;;;19.17;3.90;;;;;;;19.75;46.33;99438.84;4956754;29;20024;-81
2021/12/26 01:56:00;;;;;;;23.77;4.40;;;;;;;19.89;45.92;99432.44;4956769;29;20031;-81
2021/12/26 01:58:29;;;;;;;23.38;5.22;;;;;;;19.70;46.36;99435.72;4956605;29;20023;-81
2021/12/26 02:00:59;;;;;;;21.45;4.15;;;;;;;19.78;46.21;99438.03;4956668;29;20106;-81
2021/12/26 02:03:25;;;;;;;23.67;4.68;;;;;;;19.87;46.07;99441.13;4956644;29;20019;-81
2021/12/26 02:05:51;;;;;;;17.92;4.18;;;;;;;19.93;45.82;99435.94;4956672;29;20042;-81
2021/12/26 02:08:17;;;;;;;47.38;8.30;;;;;;;19.90;45.79;99434.00;4939313;29;20035;-81
2021/12/26 02:10:43;;;;;;;50.88;10.38;;;;;;;19.94;45.82;99426.44;4956795;29;20366;-82
2021/12/26 02:13:09;;;;;;;63.88;11.43;;;;;;;19.90;45.83;99426.47;4956310;29;20115;-81
2021/12/26 02:15:34;;;;;;;52.88;13.68;;;;;;;19.90;45.73;99422.91;4956399;29;20027;-82
2021/12/26 02:18:01;;;;;;;65.40;13.05;;;;;;;19.74;46.01;99420.66;4956241;29;20027;-81
2021/12/26 02:23:06;;;;;;;66.15;13.50;;;;;;;19.72;46.01;99431.34;4956331;29;20027;-81
2021/12/26 02:27:31;;;;;;;51.25;11.48;;;;;;;19.65;46.18;99428.63;4956186;29;20034;-82
2021/12/26 02:28:19;;;;;;;45.75;10.05;;;;;;;19.67;45.99;99429.00;4955640;29;20385;-81
2021/12/26 02:30:47;;;;;;;55.30;10.68;;;;;;;19.56;46.35;99423.50;4938786;29;20034;-81
2021/12/26 02:33:13;;;;;;;61.97;12.10;;;;;;;19.57;46.28;99427.91;4956114;29;20027;-81
2021/12/26 02:35:40;;;;;;;74.15;12.80;;;;;;;19.65;46.08;99423.09;4955947;29;20082;-81
2021/12/26 02:38:07;;;;;;;69.15;12.88;;;;;;;19.56;46.21;99431.81;4955936;29;20062;-81
2021/12/26 02:40:33;;;;;;;87.30;14.10;;;;;;;19.65;46.17;99436.94;4954728;29;20106;-81
2021/12/26 02:42:59;;;;;;;63.60;13.20;;;;;;;19.62;46.22;99435.75;4954307;29;20094;-82
2021/12/26 02:45:25;;;;;;;50.63;10.88;;;;;;;19.75;46.05;99432.53;4937393;29;20031;-81
2021/12/26 02:47:51;;;;;;;72.78;12.40;;;;;;;19.70;46.04;99430.19;4955760;29;20106;-81
2021/12/26 02:50:26;;;;;;;71.53;10.38;;;;;;;19.71;46.03;99426.22;4955596;29;20019;-82
2021/12/26 02:52:53;;;;;;;57.40;10.45;;;;;;;19.64;46.26;99435.34;4955598;29;20035;-81
2021/12/26 02:55:20;;;;;;;41.38;8.52;;;;;;;19.52;46.48;99435.81;4955620;29;20038;-81
2021/12/26 02:57:52;;;;;;;27.45;5.65;;;;;;;19.61;46.41;99427.84;4938344;29;20054;-82
2021/12/26 03:00:20;;;;;;;29.10;6.47;;;;;;;19.72;46.27;99430.56;4955556;29;20027;-81
2021/12/26 03:02:52;;;;;;;36.20;5.75;;;;;;;19.64;46.26;99427.03;4938185;29;20031;-81
2021/12/26 03:05:19;;;;;;;36.42;8.25;;;;;;;19.74;46.01;99434.50;4955479;29;20027;-81
2021/12/26 03:07:46;;;;;;;38.80;8.48;;;;;;;19.72;46.28;99445.19;4955436;29;20035;-81
2021/12/26 03:10:21;;;;;;;39.10;7.30;;;;;;;19.75;46.11;99438.84;4955674;29;20046;-81
2021/12/26 03:12:49;;;;;;;36.30;8.65;;;;;;;19.78;45.85;99438.03;4955209;29;20446;-81
2021/12/26 03:15:15;;;;;;;44.35;10.20;;;;;;;19.75;45.99;99427.78;4955265;29;20114;-81
2021/12/26 03:17:40;;;;;;;49.40;9.15;;;;;;;19.71;46.02;99429.75;4955129;29;20110;-81
2021/12/26 03:20:08;;;;;;;64.22;11.20;;;;;;;19.74;45.88;99430.94;4955199;29;20055;-81
2021/12/26 03:22:34;;;;;;;51.25;10.80;;;;;;;19.78;45.76;99432.50;4955159;29;20062;-82
2021/12/26 03:25:00;;;;;;;62.75;12.02;;;;;;;19.76;45.71;99437.66;4955124;29;20035;-81
2021/12/26 03:27:25;;;;;;;48.03;9.93;;;;;;;19.80;45.81;99434.84;4955136;29;20042;-81
2021/12/26 03:29:51;;;;;;;53.42;9.95;;;;;;;19.77;45.89;99436.47;4955085;29;20031;-81
2021/12/26 03:32:17;;;;;;;43.63;10.35;;;;;;;19.80;45.70;99426.53;4955120;29;20360;-81
2021/12/26 03:34:50;;;;;;;46.95;9.60;;;;;;;19.76;45.93;99423.81;4937721;29;20054;-81
2021/12/26 03:37:19;;;;;;;41.83;7.75;;;;;;;19.74;45.91;99428.19;4937659;29;20042;-82
2021/12/26 03:39:44;;;;;;;37.83;7.78;;;;;;;19.72;45.79;99428.56;4954873;29;20031;-81
2021/12/26 03:42:10;;;;;;;32.67;5.97;;;;;;;19.77;45.89;99422.59;4954885;29;20506;-81
2021/12/26 03:44:36;;;;;;;27.73;5.80;;;;;;;19.78;45.88;99426.16;4954869;29;20024;-81
2021/12/26 03:47:03;;;;;;;29.75;6.15;;;;;;;19.76;45.80;99423.81;4954776;29;20426;-81
2021/12/26 03:49:29;;;;;;;27.08;5.40;;;;;;;19.75;45.84;99424.22;4954700;29;20474;-81
2021/12/26 03:51:55;;;;;;;31.23;5.40;;;;;;;19.79;45.96;99416.66;4954724;29;20035;-81
2021/12/26 03:54:21;;;;;;;26.58;5.97;;;;;;;19.71;46.13;99418.69;4954574;29;20134;-81
2021/12/26 03:56:46;;;;;;;26.60;6.35;;;;;;;19.77;45.63;99419.81;4954211;28;20563;-82
2021/12/26 03:59:12;;;;;;;22.25;5.28;;;;;;;19.75;45.79;99421.44;4954523;29;20028;-81
2021/12/26 04:01:38;;;;;;;26.75;5.63;;;;;;;19.64;46.04;99419.50;4937368;29;20486;-81
2021/12/26 04:04:03;;;;;;;27.10;6.00;;;;;;;19.72;45.79;99420.25;4937317;29;20033;-81
2021/12/26 04:06:29;;;;;;;29.17;6.47;;;;;;;19.72;45.76;99414.72;4937232;29;20114;-81
2021/12/26 04:08:55;;;;;;;21.90;5.45;;;;;;;19.74;45.77;99417.09;4954567;29;20075;-82
2021/12/26 04:11:20;;;;;;;28.40;6.03;;;;;;;19.76;45.71;99421.03;4954271;29;20464;-81
2021/12/26 04:13:46;;;;;;;22.20;4.10;;;;;;;19.75;45.76;99422.22;4954548;29;20043;-81
2021/12/26 04:16:12;;;;;;;30.25;5.40;;;;;;;19.78;45.59;99426.94;4954495;29;20027;-81
2021/12/26 04:18:38;;;;;;;31.00;5.85;;;;;;;19.73;45.68;99419.09;4954454;29;20031;-81
2021/12/26 04:21:05;;;;;;;21.48;5.68;;;;;;;19.78;45.70;99426.94;4954334;29;20032;-82
2021/12/26 04:23:32;;;;;;;19.88;5.00;;;;;;;19.61;46.24;99425.88;4954392;29;20474;-81
2021/12/26 04:25:57;;;;;;;21.05;5.15;;;;;;;19.60;46.28;99420.75;4954376;29;20035;-81
2021/12/26 04:28:23;;;;;;;23.75;6.40;;;;;;;19.75;45.84;99421.44;4954330;29;20034;-81
2021/12/26 04:30:49;;;;;;;23.52;5.70;;;;;;;19.64;46.20;99422.28;4954304;29;20513;-81
2021/12/26 04:33:14;;;;;;;19.38;5.55;;;;;;;19.66;46.23;99425.47;4954328;29;20367;-81
2021/12/26 04:35:40;;;;;;;21.75;5.68;;;;;;;19.74;45.92;99428.19;4954257;29;20066;-81
2021/12/26 04:38:06;;;;;;;28.38;7.47;;;;;;;19.54;46.37;99414.81;4936944;29;20546;-81
2021/12/26 04:40:31;;;;;;;22.77;5.88;;;;;;;19.64;46.17;99415.97;4954238;29;20034;-81
2021/12/26 04:42:57;;;;;;;23.05;6.55;;;;;;;19.58;46.38;99414.84;4954137;29;20031;-81
2021/12/26 04:45:25;;;;;;;25.27;6.03;;;;;;;19.77;45.83;99422.59;4954084;29;20114;-82
2021/12/26 04:47:51;;;;;;;21.38;5.35;;;;;;;19.78;45.38;99418.63;4954161;29;20162;-81
2021/12/26 04:50:21;;;;;;;25.98;6.68;;;;;;;19.74;45.68;99417.88;4954101;29;20054;-81
2021/12/26 04:52:48;;;;;;;18.42;4.75;;;;;;;19.80;45.57;99423.75;4954235;29;20027;-81
2021/12/26 04:55:17;;;;;;;27.88;5.07;;;;;;;19.80;45.54;99421.00;4954131;29;20031;-81
2021/12/26 04:57:43;;;;;;;19.23;5.65;;;;;;;19.80;45.58;99416.25;4953987;29;20039;-81
2021/12/26 05:00:13;;;;;;;18.60;4.85;;;;;;;19.81;45.44;99426.16;4954078;29;20498;-81
2021/12/26 05:02:39;;;;;;;21.48;5.57;;;;;;;19.80;45.41;99419.03;4954125;29;20039;-81
2021/12/26 05:05:07;;;;;;;27.95;6.13;;;;;;;19.77;45.46;99424.59;4936784;29;20023;-81
2021/12/26 05:07:33;;;;;;;15.65;4.85;;;;;;;19.70;45.79;99419.09;4936748;29;20031;-81
2021/12/26 05:09:59;;;;;;;21.55;4.50;;;;;;;19.70;45.79;99419.88;4957503;29;20031;-81
2021/12/26 05:12:25;;;;;;;31.40;6.30;;;;;;;19.61;45.93;99422.31;4957433;29;20562;-81
2021/12/26 05:14:51;;;;;;;18.20;4.55;;;;;;;19.62;45.85;99423.91;4957768;29;20023;-81
2021/12/26 05:17:17;;;;;;;15.98;6.63;;;;;;;19.69;45.74;99412.75;4940190;29;20455;-81
2021/12/26 05:19:42;;;;;;;20.77;5.30;;;;;;;19.74;45.59;99426.19;4940329;29;20058;-81
2021/12/26 05:22:09;;;;;;;17.35;5.07;;;;;;;19.65;45.72;99412.81;4957349;29;20045;-81
2021/12/26 05:24:34;;;;;;;26.55;6.22;;;;;;;19.67;45.67;99420.69;4957388;29;20696;-81
2021/12/26 05:27:00;;;;;;;15.38;4.88;;;;;;;19.60;45.74;99421.53;4957345;29;20035;-81
2021/12/26 05:29:25;;;;;;;28.02;5.68;;;;;;;19.64;45.53;99422.28;4957242;29;20073;-82
2021/12/26 05:31:52;;;;;;;27.48;5.93;;;;;;;19.64;45.63;99415.97;4957218;29;20062;-81
2021/12/26 05:34:18;;;;;;;16.70;4.55;;;;;;;19.66;45.52;99413.59;4957372;29;20038;-81
2021/12/26 05:36:44;;;;;;;19.33;5.85;;;;;;;19.62;45.51;99416.38;4940056;29;20078;-81
2021/12/26 05:39:11;;;;;;;24.73;5.20;;;;;;;19.54;45.48;99417.56;4957082;29;20027;-81
2021/12/26 05:41:38;;;;;;;18.75;5.97;;;;;;;19.51;45.62;99417.63;4939816;29;20028;-81
2021/12/26 05:44:05;;;;;;;24.02;5.30;;;;;;;19.36;45.86;99423.22;4949139;29;20026;-82
2021/12/26 05:46:31;;;;;;;16.75;5.03;;;;;;;19.39;45.52;99422.41;4956995;29;20031;-81
2021/12/26 05:48:59;;;;;;;22.50;6.65;;;;;;;19.31;45.43;99414.56;4956826;29;20027;-81
2021/12/26 05:51:25;;;;;;;22.77;5.30;;;;;;;19.25;45.45;99422.47;4956864;29;20031;-81
2021/12/26 05:53:50;;;;;;;27.40;6.18;;;;;;;19.26;45.40;99418.53;4956735;29;20398;-81
2021/12/26 05:56:16;;;;;;;21.15;4.47;;;;;;;19.21;45.61;99421.72;4956728;29;20102;-81
2021/12/26 05:58:42;;;;;;;17.13;4.80;;;;;;;19.09;45.70;99422.16;4956543;29;20027;-81
2021/12/26 06:01:08;;;;;;;23.98;4.82;;;;;;;19.14;45.39;99424.53;4956702;29;20034;-81
2021/12/26 06:03:33;;;;;;;12.50;4.00;;;;;;;19.11;45.35;99428.09;4956640;29;20034;-82
2021/12/26 06:05:59;;;;;;;19.10;4.70;;;;;;;19.05;45.38;99432.47;4939375;29;20053;-81
2021/12/26 06:08:24;;;;;;;22.42;4.40;;;;;;;19.00;45.38;99430.91;4956572;29;20058;-81
2021/12/26 06:10:50;;;;;;;10.70;3.58;;;;;;;18.99;45.49;99431.31;4956531;29;20028;-81
2021/12/26 06:13:16;;;;;;;21.38;4.20;;;;;;;18.91;45.36;99425.03;4956237;29;20069;-82
2021/12/26 06:15:41;;;;;;;26.30;7.90;;;;;;;18.89;45.43;99432.91;4956451;29;20031;-81
2021/12/26 06:18:07;;;;;;;19.77;4.25;;;;;;;18.77;45.58;99431.38;4956260;29;20034;-81
2021/12/26 06:20:33;;;;;;;19.90;5.15;;;;;;;18.85;45.47;99432.16;4956022;28;20510;-81
2021/12/26 06:22:58;;;;;;;24.02;5.03;;;;;;;18.83;45.39;99424.25;4956128;29;20027;-81
2021/12/26 06:25:24;;;;;;;24.77;4.10;;;;;;;18.80;45.42;99435.31;4955639;29;20103;-81
2021/12/26 06:27:49;;;;;;;24.75;4.60;;;;;;;18.75;45.18;99425.47;4954562;29;20031;-81
2021/12/26 06:30:15;;;;;;;12.65;3.88;;;;;;;18.75;45.20;99422.69;4955823;29;20119;-81
2021/12/26 06:32:41;;;;;;;18.48;4.35;;;;;;;18.73;45.31;99422.28;4938872;29;20037;-81
2021/12/26 06:35:08;;;;;;;25.88;6.30;;;;;;;18.71;45.24;99427.44;4956144;29;20027;-81
2021/12/26 06:37:35;;;;;;;21.55;4.13;;;;;;;18.70;45.12;99423.09;4955959;29;20075;-81
2021/12/26 06:40:01;;;;;;;17.52;4.22;;;;;;;18.65;45.23;99423.47;4956094;29;20371;-81
2021/12/26 06:42:29;;;;;;;23.73;5.63;;;;;;;18.52;45.59;99427.88;4955850;29;20078;-81
2021/12/26 06:44:55;;;;;;;17.00;4.35;;;;;;;18.48;45.31;99430.63;4955946;29;20027;-81
2021/12/26 06:47:21;;;;;;;26.45;5.20;;;;;;;18.44;45.28;99429.84;4955765;29;20075;-81
2021/12/26 06:49:47;;;;;;;21.50;4.53;;;;;;;18.43;45.02;99427.47;4955835;29;20035;-81
2021/12/26 06:52:13;;;;;;;30.40;3.97;;;;;;;18.34;45.09;99440.91;4955656;29;20031;-81
2021/12/26 06:54:40;;;;;;;58.03;7.35;;;;;;;18.25;45.20;99444.09;4955699;29;20063;-81
2021/12/26 06:57:07;;;;;;;16.35;3.00;;;;;;;18.17;45.19;99448.81;4955463;29;20035;-81
2021/12/26 06:59:33;;;;;;;17.13;2.83;;;;;;;18.20;45.03;99450.78;4955602;29;20065;-81
2021/12/26 07:01:58;;;;;;;17.30;3.65;;;;;;;18.17;45.22;99454.34;4955577;29;20055;-81
2021/12/26 07:04:24;;;;;;;16.00;4.45;;;;;;;18.18;45.28;99455.94;4955518;29;20605;-80
2021/12/26 07:06:49;;;;;;;25.48;3.83;;;;;;;18.17;45.32;99451.59;4955419;29;20031;-81
2021/12/26 07:09:15;;;;;;;21.65;4.05;;;;;;;18.19;45.30;99451.19;4955339;29;20117;-80
2021/12/26 07:11:41;;;;;;;17.98;3.60;;;;;;;18.18;45.40;99455.94;4955166;29;20054;-81
2021/12/26 07:14:07;;;;;;;20.20;3.97;;;;;;;18.22;45.34;99453.97;4955398;29;20039;-81
2021/12/26 07:16:33;;;;;;;24.10;4.38;;;;;;;18.23;45.34;99452.78;4955284;29;20090;-81
2021/12/26 07:18:59;;;;;;;29.45;5.28;;;;;;;18.10;45.81;99450.81;4946098;29;20043;-81
2021/12/26 07:21:24;;;;;;;37.80;7.07;;;;;;;18.18;45.56;99455.13;4935542;29;20039;-81
2021/12/26 07:23:50;;;;;;;42.58;9.18;;;;;;;18.13;45.85;99453.56;4935444;29;20084;-80
2021/12/26 07:26:16;;;;;;;47.40;9.38;;;;;;;18.25;45.76;99460.66;4919077;29;20028;-81
2021/12/26 07:28:54;;;;;;;31.42;8.27;;;;;;;18.36;45.55;99460.66;4935987;29;20058;-81
2021/12/26 07:31:20;;;;;;;33.28;6.57;;;;;;;18.45;45.65;99463.81;4934301;29;20465;-81
2021/12/26 07:33:45;;;;;;;38.80;8.02;;;;;;;18.35;46.21;99464.59;4935775;29;20032;-81
2021/12/26 07:36:11;;;;;;;47.15;8.07;;;;;;;18.56;45.63;99470.91;4935707;29;20035;-80
2021/12/26 07:38:37;;;;;;;44.60;8.88;;;;;;;18.58;46.19;99465.75;4935560;29;20040;-80
2021/12/26 07:41:02;;;;;;;47.70;9.95;;;;;;;18.70;45.86;99472.13;4935693;29;20368;-81
2021/12/26 07:43:28;;;;;;;34.72;7.65;;;;;;;18.87;45.49;99462.97;4935827;29;20410;-80
2021/12/26 07:45:54;;;;;;;39.33;8.30;;;;;;;18.87;45.68;99467.72;4935601;29;20479;-80
2021/12/26 07:48:20;;;;;;;39.28;7.85;;;;;;;18.89;45.76;99474.44;4935646;29;20087;-80
2021/12/26 07:50:45;;;;;;;30.80;7.57;;;;;;;18.88;45.61;99472.84;4935507;29;20040;-81
2021/12/26 07:53:12;;;;;;;36.40;7.30;;;;;;;19.00;45.61;99477.97;4935537;29;20127;-82
2021/12/26 07:55:38;;;;;;;32.30;7.20;;;;;;;18.97;46.03;99475.22;4935501;29;20114;-80
2021/12/26 07:58:04;;;;;;;33.40;7.53;;;;;;;18.96;45.79;99484.69;4918341;29;20035;-80
2021/12/26 08:00:30;;;;;;;28.38;6.32;;;;;;;18.96;45.96;99481.91;4935524;29;20116;-81
2021/12/26 08:02:58;;;;;;;24.75;5.35;;;;;;;19.04;45.92;99494.56;4935434;29;20360;-81
2021/12/26 08:05:23;;;;;;;19.70;5.47;;;;;;;19.06;45.84;99500.50;4935261;29;20034;-79
2021/12/26 08:07:50;;;;;;;33.25;6.05;;;;;;;19.10;45.74;99504.03;4934643;29;20020;-79
2021/12/26 08:10:15;;;;;;;28.40;5.60;;;;;;;19.10;45.67;99510.34;4935315;29;20031;-80
2021/12/26 08:12:41;;;;;;;29.63;5.75;;;;;;;19.19;45.79;99507.16;4947302;29;20106;-80
2021/12/26 08:15:07;;;;;;;20.38;4.90;;;;;;;19.25;45.61;99511.09;4954520;29;20031;-79
2021/12/26 08:17:33;;;;;;;18.02;4.47;;;;;;;19.31;45.52;99515.03;4954246;29;20038;-80
2021/12/26 08:19:59;;;;;;;15.93;4.90;;;;;;;19.21;45.72;99506.78;4954650;29;20051;-78
2021/12/26 08:22:26;;;;;;;19.50;4.65;;;;;;;19.18;45.97;99508.34;4954620;29;20023;-80
2021/12/26 08:24:51;;;;;;;18.50;4.65;;;;;;;19.27;45.91;99519.00;4954375;29;20106;-80
2021/12/26 08:27:17;;;;;;;20.90;4.25;;;;;;;19.31;45.71;99520.56;4954212;29;20567;-80
2021/12/26 08:29:43;;;;;;;25.85;4.72;;;;;;;19.47;45.32;99525.66;4954227;29;20035;-80
2021/12/26 08:32:14;;;;;;;13.70;3.78;;;;;;;19.50;45.34;99533.19;4954260;29;20031;-79
2021/12/26 08:34:40;;;;;;;17.15;5.22;;;;;;;19.59;45.12;99528.00;4954256;29;20031;-80
2021/12/26 08:37:06;;;;;;;14.07;3.55;;;;;;;19.57;45.20;99530.41;4936992;29;20063;-80
2021/12/26 08:39:40;;;;;;;16.55;5.10;;;;;;;19.55;45.15;99532.75;4954187;29;20099;-80
2021/12/26 08:42:08;;;;;;;11.00;4.45;;;;;;;19.50;45.46;99526.84;4936943;29;20030;-80
2021/12/26 08:44:34;;;;;;;16.48;5.28;;;;;;;19.55;45.10;99529.97;4957563;29;20031;-79
2021/12/26 08:47:00;;;;;;;14.85;4.13;;;;;;;19.59;44.96;99536.31;4957925;29;20031;-80
2021/12/26 08:49:27;;;;;;;14.32;3.97;;;;;;;19.60;45.01;99540.69;4958284;29;20038;-79
2021/12/26 08:51:53;;;;;;;15.02;4.47;;;;;;;19.52;45.27;99543.84;4957934;29;20059;-80
2021/12/26 08:54:21;;;;;;;16.67;5.07;;;;;;;19.53;45.15;99534.34;4957828;29;20482;-80
2021/12/26 08:56:47;;;;;;;13.18;4.20;;;;;;;19.51;45.14;99540.28;4957787;29;20042;-80
2021/12/26 08:59:14;;;;;;;14.43;4.22;;;;;;;19.51;44.99;99542.28;4957828;29;20027;-77
2021/12/26 09:01:39;;;;;;;21.00;4.78;;;;;;;19.55;45.09;99534.72;4957733;29;20038;-79
2021/12/26 09:04:05;;;;;;;14.18;4.40;;;;;;;19.54;45.11;99535.91;4957701;29;20027;-79
2021/12/26 09:06:31;;;;;;;14.57;5.07;;;;;;;19.58;44.95;99543.06;4957578;29;20030;-79
2021/12/26 09:08:56;;;;;;;14.52;4.50;;;;;;;19.54;44.95;99544.22;4957577;29;20031;-78
2021/12/26 09:11:22;;;;;;;16.27;4.95;;;;;;;19.51;45.14;99545.84;4957321;29;20027;-88
2021/12/26 09:13:48;;;;;;;18.90;4.88;;;;;;;19.50;45.24;99546.25;4953327;29;20040;-80
2021/12/26 09:16:14;;;;;;;16.17;4.45;;;;;;;19.54;45.15;99549.78;4948052;29;20027;-80
2021/12/26 09:18:40;;;;;;;22.95;5.57;;;;;;;19.53;45.24;99557.28;4946498;29;20083;-80
2021/12/26 09:21:06;;;;;;;23.42;5.63;;;;;;;19.59;45.17;99557.72;4946199;29;20056;-77
2021/12/26 09:23:31;;;;;;;21.00;5.50;;;;;;;19.62;44.98;99556.88;4938080;29;20466;-79
2021/12/26 09:25:57;;;;;;;15.15;5.05;;;;;;;19.58;45.30;99561.66;4938022;29;20024;-79
2021/12/26 09:28:23;;;;;;;15.48;5.55;;;;;;;19.61;45.18;99560.84;4937874;29;20035;-79
2021/12/26 09:30:48;;;;;;;20.98;9.82;;;;;;;19.73;45.10;99571.50;4937814;29;20075;-80
2021/12/26 09:33:19;;;;;;;15.38;6.15;;;;;;;19.80;44.71;99565.94;4942783;29;20086;-80
2021/12/26 09:35:46;;;;;;;16.48;6.57;;;;;;;19.85;44.71;99576.56;4947378;29;20027;-80
2021/12/26 09:38:12;;;;;;;22.50;8.15;;;;;;;19.84;44.68;99563.13;4946014;29;20055;-81
2021/12/26 09:40:38;;;;;;;26.48;13.88;;;;;;;19.94;44.41;99567.81;4946157;29;20474;-79
2021/12/26 09:43:04;;;;;;;12.95;5.20;;;;;;;19.93;44.46;99567.03;4947356;29;20538;-75
2021/12/26 09:45:29;;;;;;;14.50;6.38;;;;;;;19.92;44.64;99570.22;4945283;29;20111;-77
2021/12/26 09:47:55;;;;;;;16.40;6.20;;;;;;;19.94;44.68;99565.81;4946087;29;20031;-77
2021/12/26 09:50:22;;;;;;;16.45;6.05;;;;;;;19.97;44.61;99560.69;4946656;29;20078;-79
2021/12/26 09:52:49;;;;;;;16.98;5.68;;;;;;;19.97;44.67;99563.47;4944829;29;20039;-77
2021/12/26 09:55:15;;;;;;;19.88;5.45;;;;;;;19.99;44.73;99570.16;4944363;28;20030;-77
2021/12/26 09:57:42;;;;;;;11.90;5.40;;;;;;;20.12;44.46;99570.50;4944491;29;20035;-78
2021/12/26 10:00:20;;;;;;;15.48;4.82;;;;;;;20.16;44.52;99574.03;4946673;29;20035;-76
2021/12/26 10:02:47;;;;;;;14.02;4.07;;;;;;;20.15;44.49;99569.69;4945996;29;20484;-77
2021/12/26 10:05:12;;;;;;;15.05;3.50;;;;;;;20.17;44.48;99568.06;4944784;29;20054;-76
2021/12/26 10:07:38;;;;;;;14.57;3.10;;;;;;;20.08;44.75;99561.41;4946350;29;20063;-77
2021/12/26 10:10:07;;;;;;;14.88;3.17;;;;;;;20.09;44.45;99565.75;4946517;29;20063;-79
2021/12/26 10:12:40;;;;;;;19.83;3.95;;;;;;;20.13;44.50;99560.97;4943958;29;20071;-76
2021/12/26 10:15:06;;;;;;;11.52;2.83;;;;;;;20.19;44.48;99560.16;4946243;29;20505;-79
2021/12/26 10:17:32;;;;;;;12.35;2.90;;;;;;;20.16;44.66;99568.47;4955930;29;20039;-79
2021/12/26 10:20:08;;;;;;;12.85;2.92;;;;;;;20.18;44.51;99564.13;4955442;29;20039;-79
2021/12/26 10:22:34;;;;;;;10.48;2.65;;;;;;;20.19;44.64;99570.47;4956193;29;20455;-79
2021/12/26 10:25:09;;;;;;;15.32;3.63;;;;;;;20.11;44.77;99561.41;4954179;29;20055;-79
2021/12/26 10:27:34;;;;;;;11.73;3.70;;;;;;;20.24;44.64;99564.47;4940347;29;20391;-79
2021/12/26 10:30:03;;;;;;;13.32;3.40;;;;;;;20.20;44.51;99558.16;4936057;29;20043;-79
2021/12/26 10:32:37;;;;;;;7.50;2.85;;;;;;;20.18;44.65;99558.56;4940154;29;20104;-79
2021/12/26 10:35:05;;;;;;;13.35;2.88;;;;;;;20.23;44.43;99563.66;4944791;29;20115;-79
2021/12/26 10:37:38;;;;;;;14.98;3.38;;;;;;;20.22;44.39;99550.22;4946241;29;20070;-79
2021/12/26 10:40:14;;;;;;;11.95;2.70;;;;;;;20.19;44.33;99539.94;4947036;29;20466;-78
2021/12/26 10:42:45;;;;;;;11.57;3.20;;;;;;;20.10;44.40;99548.72;4941884;29;20028;-81
2021/12/26 10:45:13;;;;;;;8.93;3.53;;;;;;;20.11;44.45;99566.94;4936088;29;20028;-78
2021/12/26 10:47:41;;;;;;;11.85;3.53;;;;;;;20.14;44.50;99565.31;4936749;29;20119;-78
2021/12/26 10:50:11;;;;;;;12.65;3.00;;;;;;;20.17;44.47;99561.72;4936601;29;20031;-79
2021/12/26 10:53:01;;;;;;;8.45;2.20;;;;;;;20.21;44.37;99565.28;4936637;29;20028;-79
2021/12/26 10:55:41;;;;;;;12.05;3.97;;;;;;;20.14;44.45;99562.56;4935953;29;20554;-79
2021/12/26 10:58:18;;;;;;;11.23;3.13;;;;;;;20.18;44.44;99558.56;4936427;29;20110;-79
2021/12/26 11:00:50;;;;;;;7.75;2.67;;;;;;;20.22;44.49;99564.88;4936898;29;20058;-79
2021/12/26 11:03:25;;;;;;;5.32;2.05;;;;;;;20.26;44.55;99553.78;4936604;29;20020;-79
2021/12/26 11:05:53;;;;;;;6.28;2.15;;;;;;;20.13;44.51;99559.00;4935544;29;20027;-78
2021/12/26 11:08:49;;;;;;;11.38;2.78;;;;;;;20.24;44.66;99550.59;4936312;29;20111;-79
2021/12/26 11:11:20;;;;;;;15.02;4.60;;;;;;;20.34;44.64;99544.19;4919909;29;20039;-78
2021/12/26 11:13:47;;;;;;;14.43;3.97;;;;;;;20.49;44.51;99540.16;4936381;29;20104;-78
2021/12/26 11:16:15;;;;;;;10.95;2.65;;;;;;;20.60;44.67;99547.59;4919160;29;20453;-78
2021/12/26 11:18:41;;;;;;;8.27;3.17;;;;;;;20.67;44.75;99537.19;4936126;29;20083;-78
2021/12/26 11:21:08;;;;;;;7.45;2.60;;;;;;;20.80;44.75;99534.72;4936132;29;20471;-78
2021/12/26 11:23:38;;;;;;;15.82;3.17;;;;;;;20.87;44.55;99534.66;4936081;29;20110;-78
2021/12/26 11:26:08;;;;;;;9.57;3.00;;;;;;;20.94;44.57;99525.47;4936151;29;20031;-78